sensor_id;sensor_type;location;lat;lon;timestamp;pressure;altitude;pressure_sealevel;temperature;humidity
25350;BME280;13302;48.796;11.978;2023-04-23T00:00:20;96234.53;;;14.10;39.19
25350;BME280;13302;48.796;11.978;2023-04-23T00:03:07;96244.84;;;14.09;39.66
25350;BME280;13302;48.796;11.978;2023-04-23T00:05:59;96248.81;;;14.08;39.59
25350;BME280;13302;48.796;11.978;2023-04-23T00:08:53;96242.88;;;14.06;39.68
25350;BME280;13302;48.796;11.978;2023-04-23T00:11:41;96244.03;;;14.05;39.63
25350;BME280;13302;48.796;11.978;2023-04-23T00:14:28;96246.03;;;14.05;39.78
25350;BME280;13302;48.796;11.978;2023-04-23T00:17:15;96247.19;;;14.04;39.54
25350;BME280;13302;48.796;11.978;2023-04-23T00:20:03;96240.88;;;14.03;39.99
25350;BME280;13302;48.796;11.978;2023-04-23T00:22:50;96228.53;;;14.01;39.82
25350;BME280;13302;48.796;11.978;2023-04-23T00:25:37;96233.72;;;14.02;40.17
25350;BME280;13302;48.796;11.978;2023-04-23T00:28:24;96227.34;;;14.02;39.83
25350;BME280;13302;48.796;11.978;2023-04-23T00:31:11;96220.19;;;14.01;40.01
25350;BME280;13302;48.796;11.978;2023-04-23T00:33:58;96219.00;;;14.02;40.25
25350;BME280;13302;48.796;11.978;2023-04-23T00:36:45;96217.84;;;14.03;39.99
25350;BME280;13302;48.796;11.978;2023-04-23T00:39:32;96207.91;;;14.02;40.48
25350;BME280;13302;48.796;11.978;2023-04-23T00:42:20;96213.84;;;14.00;40.12
25350;BME280;13302;48.796;11.978;2023-04-23T00:45:07;96208.69;;;14.02;40.37
25350;BME280;13302;48.796;11.978;2023-04-23T00:47:55;96213.84;;;14.00;40.31
25350;BME280;13302;48.796;11.978;2023-04-23T00:50:42;96215.41;;;13.98;40.47
25350;BME280;13302;48.796;11.978;2023-04-23T00:53:29;96214.19;;;13.95;40.53
25350;BME280;13302;48.796;11.978;2023-04-23T00:56:17;96214.19;;;13.95;40.36
25350;BME280;13302;48.796;11.978;2023-04-23T00:59:04;96216.22;;;13.95;40.53
25350;BME280;13302;48.796;11.978;2023-04-23T01:01:51;96209.44;;;13.92;40.54
25350;BME280;13302;48.796;11.978;2023-04-23T01:04:41;96206.25;;;13.90;40.64
25350;BME280;13302;48.796;11.978;2023-04-23T01:07:28;96209.84;;;13.91;40.60
25350;BME280;13302;48.796;11.978;2023-04-23T01:10:16;96205.81;;;13.88;40.83
25350;BME280;13302;48.796;11.978;2023-04-23T01:13:03;96209.00;;;13.87;40.94
25350;BME280;13302;48.796;11.978;2023-04-23T01:15:50;96212.16;;;13.85;40.72
25350;BME280;13302;48.796;11.978;2023-04-23T01:18:37;96211.38;;;13.85;40.98
25350;BME280;13302;48.796;11.978;2023-04-23T01:21:28;96203.41;;;13.83;41.08
25350;BME280;13302;48.796;11.978;2023-04-23T01:24:15;96209.78;;;13.84;41.23
25350;BME280;13302;48.796;11.978;2023-04-23T01:27:02;96210.19;;;13.82;41.17
25350;BME280;13302;48.796;11.978;2023-04-23T01:29:49;96207.78;;;13.80;41.28
25350;BME280;13302;48.796;11.978;2023-04-23T01:32:38;96213.34;;;13.80;41.34
25350;BME280;13302;48.796;11.978;2023-04-23T01:35:25;96212.53;;;13.80;41.24
25350;BME280;13302;48.796;11.978;2023-04-23T01:38:13;96218.09;;;13.80;40.93
25350;BME280;13302;48.796;11.978;2023-04-23T01:41:00;96216.50;;;13.79;41.18
25350;BME280;13302;48.796;11.978;2023-04-23T01:43:47;96217.69;;;13.78;41.08
25350;BME280;13302;48.796;11.978;2023-04-23T01:46:35;96218.88;;;13.77;41.33
25350;BME280;13302;48.796;11.978;2023-04-23T01:49:23;96212.88;;;13.75;41.28
25350;BME280;13302;48.796;11.978;2023-04-23T01:52:10;96219.25;;;13.75;41.23
25350;BME280;13302;48.796;11.978;2023-04-23T01:54:57;96218.44;;;13.75;41.38
25350;BME280;13302;48.796;11.978;2023-04-23T01:57:45;96227.97;;;13.74;41.62
25350;BME280;13302;48.796;11.978;2023-04-23T02:00:32;96223.59;;;13.73;41.38
25350;BME280;13302;48.796;11.978;2023-04-23T02:03:19;96228.34;;;13.72;41.50
25350;BME280;13302;48.796;11.978;2023-04-23T02:06:07;96230.75;;;13.74;41.32
25350;BME280;13302;48.796;11.978;2023-04-23T02:08:54;96219.22;;;13.72;41.57
25350;BME280;13302;48.796;11.978;2023-04-23T02:11:41;96222.00;;;13.72;41.68
25350;BME280;13302;48.796;11.978;2023-04-23T02:14:28;96228.75;;;13.71;41.71
25350;BME280;13302;48.796;11.978;2023-04-23T02:17:18;96229.94;;;13.70;41.64
25350;BME280;13302;48.796;11.978;2023-04-23T02:20:07;96226.38;;;13.69;41.75
25350;BME280;13302;48.796;11.978;2023-04-23T02:22:55;96232.72;;;13.70;41.40
25350;BME280;13302;48.796;11.978;2023-04-23T02:25:42;96229.16;;;13.69;41.48
25350;BME280;13302;48.796;11.978;2023-04-23T02:28:29;96235.06;;;13.68;41.84
25350;BME280;13302;48.796;11.978;2023-04-23T02:31:17;96243.41;;;13.68;41.65
25350;BME280;13302;48.796;11.978;2023-04-23T02:34:06;96235.06;;;13.68;42.06
25350;BME280;13302;48.796;11.978;2023-04-23T02:36:53;96245.38;;;13.67;42.06
25350;BME280;13302;48.796;11.978;2023-04-23T02:39:40;96242.22;;;13.65;41.84
25350;BME280;13302;48.796;11.978;2023-04-23T02:42:27;96245.78;;;13.66;41.76
25350;BME280;13302;48.796;11.978;2023-04-23T02:45:14;96239.81;;;13.64;41.84
25350;BME280;13302;48.796;11.978;2023-04-23T02:48:01;96237.41;;;13.62;41.77
25350;BME280;13302;48.796;11.978;2023-04-23T02:50:49;96233.44;;;13.60;41.79
25350;BME280;13302;48.796;11.978;2023-04-23T02:53:36;96235.41;;;13.59;41.88
25350;BME280;13302;48.796;11.978;2023-04-23T02:56:24;96240.16;;;13.59;41.58
25350;BME280;13302;48.796;11.978;2023-04-23T02:59:11;96234.22;;;13.57;41.90
25350;BME280;13302;48.796;11.978;2023-04-23T03:01:58;96238.97;;;13.56;41.50
25350;BME280;13302;48.796;11.978;2023-04-23T03:04:45;96235.38;;;13.56;41.90
25350;BME280;13302;48.796;11.978;2023-04-23T03:07:33;96246.09;;;13.54;41.98
25350;BME280;13302;48.796;11.978;2023-04-23T03:10:20;96242.53;;;13.53;41.86
25350;BME280;13302;48.796;11.978;2023-04-23T03:13:07;96240.53;;;13.54;41.78
25350;BME280;13302;48.796;11.978;2023-04-23T03:15:54;96236.97;;;13.53;41.77
25350;BME280;13302;48.796;11.978;2023-04-23T03:18:42;96236.16;;;13.53;41.81
25350;BME280;13302;48.796;11.978;2023-04-23T03:21:29;96242.09;;;13.51;42.02
25350;BME280;13302;48.796;11.978;2023-04-23T03:24:16;96230.19;;;13.51;42.09
25350;BME280;13302;48.796;11.978;2023-04-23T03:27:03;96228.63;;;13.50;41.90
25350;BME280;13302;48.796;11.978;2023-04-23T03:29:51;96229.78;;;13.49;41.84
25350;BME280;13302;48.796;11.978;2023-04-23T03:32:38;96229.78;;;13.49;42.00
25350;BME280;13302;48.796;11.978;2023-04-23T03:35:25;96230.97;;;13.48;41.91
25350;BME280;13302;48.796;11.978;2023-04-23T03:38:14;96238.47;;;13.44;41.87
25350;BME280;13302;48.796;11.978;2023-04-23T03:41:01;96241.63;;;13.42;42.29
25350;BME280;13302;48.796;11.978;2023-04-23T03:43:48;96238.06;;;13.42;42.31
25350;BME280;13302;48.796;11.978;2023-04-23T03:46:46;96242.81;;;13.41;42.33
25350;BME280;13302;48.796;11.978;2023-04-23T03:49:35;96244.41;;;13.42;42.10
25350;BME280;13302;48.796;11.978;2023-04-23T03:52:23;96247.16;;;13.42;42.30
25350;BME280;13302;48.796;11.978;2023-04-23T03:55:11;96246.78;;;13.44;42.12
25350;BME280;13302;48.796;11.978;2023-04-23T03:58:02;96253.94;;;13.45;42.11
25350;BME280;13302;48.796;11.978;2023-04-23T04:01:01;96244.03;;;13.47;41.93
25350;BME280;13302;48.796;11.978;2023-04-23T04:03:48;96246.44;;;13.49;42.21
25350;BME280;13302;48.796;11.978;2023-04-23T04:06:35;96257.56;;;13.52;41.86
25350;BME280;13302;48.796;11.978;2023-04-23T04:09:22;96256.81;;;13.55;41.78
25350;BME280;13302;48.796;11.978;2023-04-23T04:12:09;96250.47;;;13.58;41.54
25350;BME280;13302;48.796;11.978;2023-04-23T04:14:56;96251.69;;;13.61;41.28
25350;BME280;13302;48.796;11.978;2023-04-23T04:17:43;96246.16;;;13.64;41.12
25350;BME280;13302;48.796;11.978;2023-04-23T04:20:31;96245.38;;;13.67;41.36
25350;BME280;13302;48.796;11.978;2023-04-23T04:23:18;96247.41;;;13.70;40.95
25350;BME280;13302;48.796;11.978;2023-04-23T04:26:06;96255.75;;;13.74;41.10
25350;BME280;13302;48.796;11.978;2023-04-23T04:28:53;96254.97;;;13.77;40.96
25350;BME280;13302;48.796;11.978;2023-04-23T04:31:40;96253.03;;;13.81;40.83
25350;BME280;13302;48.796;11.978;2023-04-23T04:34:27;96263.34;;;13.84;40.42
25350;BME280;13302;48.796;11.978;2023-04-23T04:37:15;96262.56;;;13.87;40.36
25350;BME280;13302;48.796;11.978;2023-04-23T04:40:02;96262.56;;;13.87;40.23
25350;BME280;13302;48.796;11.978;2023-04-23T04:42:51;96264.59;;;13.90;40.30
25350;BME280;13302;48.796;11.978;2023-04-23T04:45:38;96272.94;;;13.90;40.26
25350;BME280;13302;48.796;11.978;2023-04-23T04:48:26;96274.56;;;13.95;40.36
25350;BME280;13302;48.796;11.978;2023-04-23T04:51:13;96282.50;;;13.96;40.44
25350;BME280;13302;48.796;11.978;2023-04-23T04:54:00;96290.03;;;13.99;40.13
25350;BME280;13302;48.796;11.978;2023-04-23T04:56:47;96284.47;;;13.99;40.27
25350;BME280;13302;48.796;11.978;2023-04-23T04:59:34;96282.13;;;14.01;40.05
25350;BME280;13302;48.796;11.978;2023-04-23T05:02:21;96285.34;;;14.03;40.01
25350;BME280;13302;48.796;11.978;2023-04-23T05:05:09;96283.31;;;14.04;39.86
25350;BME280;13302;48.796;11.978;2023-04-23T05:07:56;96282.94;;;14.05;40.16
25350;BME280;13302;48.796;11.978;2023-04-23T05:10:48;96288.50;;;14.05;40.26
25350;BME280;13302;48.796;11.978;2023-04-23T05:13:40;96295.25;;;14.08;39.91
25350;BME280;13302;48.796;11.978;2023-04-23T05:16:27;96304.41;;;14.08;39.95
25350;BME280;13302;48.796;11.978;2023-04-23T05:19:13;96311.16;;;14.07;39.90
25350;BME280;13302;48.796;11.978;2023-04-23T05:22:01;96311.56;;;14.09;40.11
25350;BME280;13302;48.796;11.978;2023-04-23T05:24:49;96322.69;;;14.09;40.20
25350;BME280;13302;48.796;11.978;2023-04-23T05:27:37;96325.88;;;14.11;39.98
25350;BME280;13302;48.796;11.978;2023-04-23T05:30:24;96325.09;;;14.11;39.87
25350;BME280;13302;48.796;11.978;2023-04-23T05:33:11;96338.97;;;14.11;40.08
25350;BME280;13302;48.796;11.978;2023-04-23T05:35:58;96342.13;;;14.09;39.91
25350;BME280;13302;48.796;11.978;2023-04-23T05:38:46;96344.13;;;14.09;40.15
25350;BME280;13302;48.796;11.978;2023-04-23T05:41:33;96344.53;;;14.07;40.49
25350;BME280;13302;48.796;11.978;2023-04-23T05:44:20;96344.47;;;14.04;40.28
25350;BME280;13302;48.796;11.978;2023-04-23T05:47:09;96342.09;;;14.02;40.67
25350;BME280;13302;48.796;11.978;2023-04-23T05:49:56;96346.84;;;14.02;40.76
25350;BME280;13302;48.796;11.978;2023-04-23T05:52:43;96345.69;;;14.03;40.88
25350;BME280;13302;48.796;11.978;2023-04-23T05:55:30;96348.84;;;14.01;41.01
25350;BME280;13302;48.796;11.978;2023-04-23T05:58:17;96348.00;;;13.97;41.05
25350;BME280;13302;48.796;11.978;2023-04-23T06:01:05;96349.97;;;13.97;40.96
25350;BME280;13302;48.796;11.978;2023-04-23T06:03:52;96351.56;;;13.94;40.98
25350;BME280;13302;48.796;11.978;2023-04-23T06:06:40;96349.97;;;13.93;40.97
25350;BME280;13302;48.796;11.978;2023-04-23T06:09:27;96349.53;;;13.91;41.58
25350;BME280;13302;48.796;11.978;2023-04-23T06:12:14;96348.75;;;13.91;41.43
25350;BME280;13302;48.796;11.978;2023-04-23T06:15:02;96354.25;;;13.87;41.46
25350;BME280;13302;48.796;11.978;2023-04-23T06:17:49;96352.69;;;13.86;41.81
25350;BME280;13302;48.796;11.978;2023-04-23T06:20:36;96354.25;;;13.84;41.80
25350;BME280;13302;48.796;11.978;2023-04-23T06:23:23;96363.78;;;13.83;41.86
25350;BME280;13302;48.796;11.978;2023-04-23T06:26:10;96363.34;;;13.80;41.95
25350;BME280;13302;48.796;11.978;2023-04-23T06:28:57;96360.56;;;13.80;41.75
25350;BME280;13302;48.796;11.978;2023-04-23T06:31:50;96360.19;;;13.78;41.88
25350;BME280;13302;48.796;11.978;2023-04-23T06:34:37;96361.72;;;13.76;42.16
25350;BME280;13302;48.796;11.978;2023-04-23T06:37:39;96360.13;;;13.75;42.23
25350;BME280;13302;48.796;11.978;2023-04-23T06:40:26;96356.56;;;13.74;42.10
25350;BME280;13302;48.796;11.978;2023-04-23T06:43:13;96354.16;;;13.73;42.28
25350;BME280;13302;48.796;11.978;2023-04-23T06:46:23;96356.94;;;13.73;42.26
25350;BME280;13302;48.796;11.978;2023-04-23T06:49:09;96354.53;;;13.71;42.63
25350;BME280;13302;48.796;11.978;2023-04-23T06:51:57;96351.38;;;13.69;42.41
25350;BME280;13302;48.796;11.978;2023-04-23T06:54:44;96353.34;;;13.69;42.57
25350;BME280;13302;48.796;11.978;2023-04-23T06:57:31;96351.34;;;13.66;42.62
25350;BME280;13302;48.796;11.978;2023-04-23T07:00:18;96358.47;;;13.67;42.59
25350;BME280;13302;48.796;11.978;2023-04-23T07:03:05;96351.34;;;13.66;42.91
25350;BME280;13302;48.796;11.978;2023-04-23T07:05:53;96362.00;;;13.64;42.85
25350;BME280;13302;48.796;11.978;2023-04-23T07:08:40;96356.47;;;13.64;42.87
25350;BME280;13302;48.796;11.978;2023-04-23T07:11:27;96359.25;;;13.64;43.13
25350;BME280;13302;48.796;11.978;2023-04-23T07:14:15;96354.06;;;13.62;42.95
25350;BME280;13302;48.796;11.978;2023-04-23T07:17:03;96350.50;;;13.62;42.97
25350;BME280;13302;48.796;11.978;2023-04-23T07:19:50;96354.84;;;13.63;42.94
25350;BME280;13302;48.796;11.978;2023-04-23T07:22:37;96364.41;;;13.62;42.92
25350;BME280;13302;48.796;11.978;2023-04-23T07:25:24;96364.00;;;13.63;42.85
25350;BME280;13302;48.796;11.978;2023-04-23T07:28:12;96353.66;;;13.60;42.98
25350;BME280;13302;48.796;11.978;2023-04-23T07:31:00;96348.91;;;13.61;43.17
25350;BME280;13302;48.796;11.978;2023-04-23T07:33:48;96344.53;;;13.60;43.26
25350;BME280;13302;48.796;11.978;2023-04-23T07:36:35;96350.50;;;13.62;42.98
25350;BME280;13302;48.796;11.978;2023-04-23T07:39:22;96348.13;;;13.64;43.27
25350;BME280;13302;48.796;11.978;2023-04-23T07:42:09;96346.16;;;13.64;43.23
25350;BME280;13302;48.796;11.978;2023-04-23T07:44:56;96350.94;;;13.67;43.32
25350;BME280;13302;48.796;11.978;2023-04-23T07:47:43;96337.84;;;13.68;43.44
25350;BME280;13302;48.796;11.978;2023-04-23T07:50:32;96343.84;;;13.70;43.11
25350;BME280;13302;48.796;11.978;2023-04-23T07:53:21;96343.84;;;13.70;43.41
25350;BME280;13302;48.796;11.978;2023-04-23T07:56:07;96338.28;;;13.70;43.44
25350;BME280;13302;48.796;11.978;2023-04-23T07:58:55;96339.06;;;13.70;43.35
25350;BME280;13302;48.796;11.978;2023-04-23T08:01:43;96349.78;;;13.72;43.37
25350;BME280;13302;48.796;11.978;2023-04-23T08:04:31;96345.41;;;13.71;43.18
25350;BME280;13302;48.796;11.978;2023-04-23T08:07:18;96347.41;;;13.70;43.60
25350;BME280;13302;48.796;11.978;2023-04-23T08:10:05;96345.03;;;13.72;43.37
25350;BME280;13302;48.796;11.978;2023-04-23T08:12:53;96349.41;;;13.73;43.27
25350;BME280;13302;48.796;11.978;2023-04-23T08:15:40;96360.53;;;13.73;43.20
25350;BME280;13302;48.796;11.978;2023-04-23T08:18:27;96363.69;;;13.72;43.72
25350;BME280;13302;48.796;11.978;2023-04-23T08:21:14;96366.44;;;13.72;43.44
25350;BME280;13302;48.796;11.978;2023-04-23T08:24:02;96355.34;;;13.72;43.63
25350;BME280;13302;48.796;11.978;2023-04-23T08:26:49;96349.78;;;13.72;43.70
25350;BME280;13302;48.796;11.978;2023-04-23T08:29:36;96353.00;;;13.74;43.48
25350;BME280;13302;48.796;11.978;2023-04-23T08:32:23;96346.22;;;13.75;43.72
25350;BME280;13302;48.796;11.978;2023-04-23T08:35:10;96344.25;;;13.75;43.68
25350;BME280;13302;48.796;11.978;2023-04-23T08:37:58;96352.22;;;13.77;43.77
25350;BME280;13302;48.796;11.978;2023-04-23T08:40:48;96341.91;;;13.77;43.77
25350;BME280;13302;48.796;11.978;2023-04-23T08:43:45;96341.09;;;13.77;43.76
25350;BME280;13302;48.796;11.978;2023-04-23T08:46:35;96339.94;;;13.78;43.34
25350;BME280;13302;48.796;11.978;2023-04-23T08:49:24;96342.72;;;13.78;43.62
25350;BME280;13302;48.796;11.978;2023-04-23T08:52:16;96349.84;;;13.79;43.63
25350;BME280;13302;48.796;11.978;2023-04-23T08:55:06;96353.00;;;13.77;43.53
25350;BME280;13302;48.796;11.978;2023-04-23T08:57:57;96340.31;;;13.76;43.51
25350;BME280;13302;48.796;11.978;2023-04-23T09:00:44;96351.41;;;13.76;43.71
25350;BME280;13302;48.796;11.978;2023-04-23T09:03:32;96349.81;;;13.75;43.57
25350;BME280;13302;48.796;11.978;2023-04-23T09:06:19;96352.19;;;13.73;43.65
25350;BME280;13302;48.796;11.978;2023-04-23T09:09:08;96354.97;;;13.73;43.42
25350;BME280;13302;48.796;11.978;2023-04-23T09:11:56;96357.75;;;13.73;43.68
25350;BME280;13302;48.796;11.978;2023-04-23T09:14:43;96342.63;;;13.71;43.85
25350;BME280;13302;48.796;11.978;2023-04-23T09:17:31;96342.63;;;13.71;43.63
25350;BME280;13302;48.796;11.978;2023-04-23T09:20:18;96339.84;;;13.71;43.69
25350;BME280;13302;48.796;11.978;2023-04-23T09:23:06;96333.09;;;13.68;43.69
25350;BME280;13302;48.796;11.978;2023-04-23T09:25:55;96323.97;;;13.68;43.99
25350;BME280;13302;48.796;11.978;2023-04-23T09:28:42;96332.72;;;13.70;43.77
25350;BME280;13302;48.796;11.978;2023-04-23T09:31:29;96313.28;;;13.70;43.81
25350;BME280;13302;48.796;11.978;2023-04-23T09:34:17;96316.88;;;13.74;43.75
25350;BME280;13302;48.796;11.978;2023-04-23T09:37:05;96311.34;;;13.77;44.09
25350;BME280;13302;48.796;11.978;2023-04-23T09:40:02;96308.13;;;13.75;43.86
25350;BME280;13302;48.796;11.978;2023-04-23T09:42:54;96308.97;;;13.79;44.22
25350;BME280;13302;48.796;11.978;2023-04-23T09:45:48;96312.19;;;13.85;43.76
25350;BME280;13302;48.796;11.978;2023-04-23T09:48:42;96307.84;;;13.91;43.70
25350;BME280;13302;48.796;11.978;2023-04-23T09:51:29;96305.53;;;13.97;43.68
25350;BME280;13302;48.796;11.978;2023-04-23T09:54:19;96308.31;;;14.00;43.52
25350;BME280;13302;48.796;11.978;2023-04-23T09:57:07;96308.72;;;13.99;43.31
25350;BME280;13302;48.796;11.978;2023-04-23T09:59:57;96300.78;;;14.01;43.50
25350;BME280;13302;48.796;11.978;2023-04-23T10:02:59;96306.34;;;14.01;43.26
25350;BME280;13302;48.796;11.978;2023-04-23T10:05:47;96300.41;;;14.02;43.41
25350;BME280;13302;48.796;11.978;2023-04-23T10:08:47;96313.53;;;14.05;43.44
25350;BME280;13302;48.796;11.978;2023-04-23T10:11:35;96309.91;;;14.01;43.54
25350;BME280;13302;48.796;11.978;2023-04-23T10:14:25;96310.38;;;14.10;43.21
25350;BME280;13302;48.796;11.978;2023-04-23T10:17:12;96299.69;;;14.12;43.34
25350;BME280;13302;48.796;11.978;2023-04-23T10:19:59;96295.75;;;14.17;42.77
25350;BME280;13302;48.796;11.978;2023-04-23T10:22:48;96291.78;;;14.18;43.10
25350;BME280;13302;48.796;11.978;2023-04-23T10:25:37;96275.13;;;14.18;42.82
25350;BME280;13302;48.796;11.978;2023-04-23T10:28:25;96278.28;;;14.16;42.62
25350;BME280;13302;48.796;11.978;2023-04-23T10:31:18;96283.06;;;14.19;42.85
25350;BME280;13302;48.796;11.978;2023-04-23T10:34:06;96293.06;;;14.28;42.86
25350;BME280;13302;48.796;11.978;2023-04-23T10:36:55;96293.06;;;14.31;43.07
25350;BME280;13302;48.796;11.978;2023-04-23T10:39:43;96302.22;;;14.35;42.98
25350;BME280;13302;48.796;11.978;2023-04-23T10:42:32;96290.31;;;14.38;43.00
25350;BME280;13302;48.796;11.978;2023-04-23T10:45:20;96284.75;;;14.42;42.64
25350;BME280;13302;48.796;11.978;2023-04-23T10:48:11;96287.97;;;14.44;42.85
25350;BME280;13302;48.796;11.978;2023-04-23T10:50:59;96289.97;;;14.47;42.39
25350;BME280;13302;48.796;11.978;2023-04-23T10:54:06;96284.41;;;14.47;42.43
25350;BME280;13302;48.796;11.978;2023-04-23T10:56:58;96281.22;;;14.48;42.47
25350;BME280;13302;48.796;11.978;2023-04-23T10:59:53;96286.38;;;14.50;42.42
25350;BME280;13302;48.796;11.978;2023-04-23T11:02:43;96282.81;;;14.53;42.13
25350;BME280;13302;48.796;11.978;2023-04-23T11:05:34;96281.25;;;14.55;42.05
25350;BME280;13302;48.796;11.978;2023-04-23T11:08:21;96283.25;;;14.58;42.03
25350;BME280;13302;48.796;11.978;2023-04-23T11:11:08;96278.50;;;14.62;41.88
25350;BME280;13302;48.796;11.978;2023-04-23T11:13:55;96282.47;;;14.65;42.01
25350;BME280;13302;48.796;11.978;2023-04-23T11:16:42;96274.53;;;14.67;41.92
25350;BME280;13302;48.796;11.978;2023-04-23T11:19:29;96282.50;;;14.68;42.14
25350;BME280;13302;48.796;11.978;2023-04-23T11:22:18;96275.34;;;14.71;41.73
25350;BME280;13302;48.796;11.978;2023-04-23T11:25:09;96267.81;;;14.71;42.05
25350;BME280;13302;48.796;11.978;2023-04-23T11:27:56;96268.19;;;14.73;41.78
25350;BME280;13302;48.796;11.978;2023-04-23T11:30:49;96260.66;;;14.78;41.80
25350;BME280;13302;48.796;11.978;2023-04-23T11:33:37;96258.28;;;14.83;41.76
25350;BME280;13302;48.796;11.978;2023-04-23T11:36:24;96249.16;;;14.90;41.83
25350;BME280;13302;48.796;11.978;2023-04-23T11:39:13;96244.03;;;14.99;41.78
25350;BME280;13302;48.796;11.978;2023-04-23T11:42:00;96240.88;;;15.07;41.90
25350;BME280;13302;48.796;11.978;2023-04-23T11:44:49;96235.34;;;15.18;41.85
25350;BME280;13302;48.796;11.978;2023-04-23T11:47:36;96232.56;;;15.29;41.40
25350;BME280;13302;48.796;11.978;2023-04-23T11:53:10;96213.06;;;15.46;41.10
25350;BME280;13302;48.796;11.978;2023-04-23T11:55:58;96212.25;;;15.53;41.02
25350;BME280;13302;48.796;11.978;2023-04-23T11:58:45;96200.69;;;15.61;40.59
25350;BME280;13302;48.796;11.978;2023-04-23T12:01:39;96195.53;;;15.67;40.28
25350;BME280;13302;48.796;11.978;2023-04-23T12:04:29;96204.69;;;15.75;40.37
25350;BME280;13302;48.796;11.978;2023-04-23T12:07:16;96203.88;;;15.81;39.79
25350;BME280;13302;48.796;11.978;2023-04-23T12:10:19;96203.06;;;15.84;39.87
25350;BME280;13302;48.796;11.978;2023-04-23T12:13:12;96200.69;;;15.90;39.60
25350;BME280;13302;48.796;11.978;2023-04-23T12:16:01;96206.66;;;15.95;39.22
25350;BME280;13302;48.796;11.978;2023-04-23T12:18:52;96199.84;;;15.96;39.72
25350;BME280;13302;48.796;11.978;2023-04-23T12:24:46;96185.16;;;15.96;39.36
25350;BME280;13302;48.796;11.978;2023-04-23T12:27:42;96180.34;;;16.00;38.97
25350;BME280;13302;48.796;11.978;2023-04-23T12:30:31;96170.78;;;16.04;39.19
25350;BME280;13302;48.796;11.978;2023-04-23T12:33:19;96161.59;;;16.07;39.21
25350;BME280;13302;48.796;11.978;2023-04-23T12:36:10;96164.38;;;16.07;39.04
25350;BME280;13302;48.796;11.978;2023-04-23T12:39:32;96157.19;;;16.10;39.38
25350;BME280;13302;48.796;11.978;2023-04-23T12:42:19;96158.41;;;16.13;39.59
25350;BME280;13302;48.796;11.978;2023-04-23T12:45:08;96155.59;;;16.16;39.51
25350;BME280;13302;48.796;11.978;2023-04-23T12:47:55;96146.78;;;16.21;39.53
25350;BME280;13302;48.796;11.978;2023-04-23T12:50:45;96149.59;;;16.25;39.22
25350;BME280;13302;48.796;11.978;2023-04-23T12:53:33;96139.56;;;16.31;39.57
25350;BME280;13302;48.796;11.978;2023-04-23T12:56:20;96139.97;;;16.36;39.61
25350;BME280;13302;48.796;11.978;2023-04-23T12:59:08;96141.53;;;16.44;39.63
25350;BME280;13302;48.796;11.978;2023-04-23T13:01:55;96129.53;;;16.51;39.60
25350;BME280;13302;48.796;11.978;2023-04-23T13:04:42;96131.50;;;16.58;39.31
25350;BME280;13302;48.796;11.978;2023-04-23T13:07:29;96124.69;;;16.62;39.48
25350;BME280;13302;48.796;11.978;2023-04-23T13:10:17;96123.06;;;16.68;39.63
25350;BME280;13302;48.796;11.978;2023-04-23T13:13:04;96111.50;;;16.70;39.31
25350;BME280;13302;48.796;11.978;2023-04-23T13:15:51;96109.03;;;16.75;39.54
25350;BME280;13302;48.796;11.978;2023-04-23T13:18:38;96102.66;;;16.78;39.40
25350;BME280;13302;48.796;11.978;2023-04-23T13:21:26;96097.44;;;16.80;39.04
25350;BME280;13302;48.796;11.978;2023-04-23T13:24:13;96094.63;;;16.84;39.28
25350;BME280;13302;48.796;11.978;2023-04-23T13:27:00;96098.59;;;16.86;39.03
25350;BME280;13302;48.796;11.978;2023-04-23T13:29:47;96090.19;;;16.90;38.92
25350;BME280;13302;48.796;11.978;2023-04-23T13:32:34;96069.44;;;16.91;39.10
25350;BME280;13302;48.796;11.978;2023-04-23T13:35:22;96067.84;;;16.93;38.99
25350;BME280;13302;48.796;11.978;2023-04-23T13:38:09;96053.84;;;16.97;38.97
25350;BME280;13302;48.796;11.978;2023-04-23T13:40:56;96054.22;;;16.99;38.66
25350;BME280;13302;48.796;11.978;2023-04-23T13:43:43;96045.06;;;16.98;38.96
25350;BME280;13302;48.796;11.978;2023-04-23T13:46:30;96045.84;;;16.99;38.81
25350;BME280;13302;48.796;11.978;2023-04-23T13:49:17;96035.06;;;17.01;38.57
25350;BME280;13302;48.796;11.978;2023-04-23T13:52:04;96027.84;;;17.04;38.67
25350;BME280;13302;48.796;11.978;2023-04-23T13:54:53;96022.63;;;17.06;38.50
25350;BME280;13302;48.796;11.978;2023-04-23T13:57:42;96009.47;;;17.06;38.46
25350;BME280;13302;48.796;11.978;2023-04-23T14:00:29;96008.28;;;17.07;38.42
25350;BME280;13302;48.796;11.978;2023-04-23T14:03:17;96003.06;;;17.09;38.54
25350;BME280;13302;48.796;11.978;2023-04-23T14:06:06;96001.81;;;17.14;38.53
25350;BME280;13302;48.796;11.978;2023-04-23T14:08:53;95999.00;;;17.17;38.31
25350;BME280;13302;48.796;11.978;2023-04-23T14:11:40;96004.56;;;17.21;38.42
25350;BME280;13302;48.796;11.978;2023-04-23T14:14:27;96000.91;;;17.24;38.16
25350;BME280;13302;48.796;11.978;2023-04-23T14:17:14;95991.34;;;17.25;38.01
25350;BME280;13302;48.796;11.978;2023-04-23T14:20:02;95987.34;;;17.26;38.01
25350;BME280;13302;48.796;11.978;2023-04-23T14:22:57;95992.94;;;17.26;38.04
25350;BME280;13302;48.796;11.978;2023-04-23T14:25:51;95985.75;;;17.25;37.73
25350;BME280;13302;48.796;11.978;2023-04-23T14:28:44;95983.75;;;17.25;37.80
25350;BME280;13302;48.796;11.978;2023-04-23T14:31:31;95982.91;;;17.28;37.86
25350;BME280;13302;48.796;11.978;2023-04-23T14:34:19;95976.13;;;17.29;37.88
25350;BME280;13302;48.796;11.978;2023-04-23T14:37:07;95972.94;;;17.31;37.98
25350;BME280;13302;48.796;11.978;2023-04-23T14:39:54;95968.50;;;17.33;37.92
25350;BME280;13302;48.796;11.978;2023-04-23T14:42:41;95964.88;;;17.36;37.47
25350;BME280;13302;48.796;11.978;2023-04-23T14:45:28;95959.72;;;17.35;37.40